Cosco Aden — VRKF9 — position and weather

sailwx.info

Track history (hours):
 
Tides and Currents Weather Stations Pressure Air Temp Water Temp Dewpoint Dewpoint Depression Visibility Wind Speed Wind Dir Waves Ship Positions

Cosco Aden

Last reported at 2014-Dec-22 05:04 UTC. Time now 2014-Dec-22 14:14 UTC.
Position N 21°59' E 114°21'.

Length 261 m; draft 12.4 m.

Type: Ship (hazmat cat A). MMSI: 477765900.

Date/timePositionNaut miles runAvg speedWind from/ knotsBaromVisibWave heightAir tempDewpointWater temp
2014-Dec-22 05:04N 21°59' E 114°21'713.1
2014-Dec-22 04:33N 22°06' E 114°19'1412.7
2014-Dec-22 03:29N 22°14' E 114°08'1010.4
2014-Dec-22 02:32N 22°21' E 113°60'8 8.7
2014-Dec-22 01:33N 22°26' E 113°53'1 0.7
2014-Dec-22 00:33N 22°27' E 113°53'0 0.1
2014-Dec-21 23:33N 22°27' E 113°53'0 0.0
2014-Dec-21 22:33N 22°27' E 113°53'0 0.1
2014-Dec-21 21:33N 22°27' E 113°53'0 0.0
2014-Dec-21 20:33N 22°27' E 113°53'0 0.1
2014-Dec-21 19:27N 22°27' E 113°53'0 0.0
2014-Dec-21 18:33N 22°27' E 113°53'0 0.0
2014-Dec-21 17:33N 22°27' E 113°53'0 0.0
2014-Dec-21 16:33N 22°27' E 113°53'0 0.0
2014-Dec-21 15:33N 22°27' E 113°53'0 0.0
2014-Dec-21 14:33N 22°27' E 113°53'6 5.6
2014-Dec-21 13:33N 22°22' E 113°55'1010.4
2014-Dec-21 12:33N 22°18' E 114°06'10 9.0
2014-Dec-21 11:26N 22°10' E 114°12'7 8.2
2014-Dec-21 10:33N 22°04' E 114°08'1211.1
2014-Dec-21 09:29N 21°60' E 113°56'9 9.6
2014-Dec-21 08:32N 22°07' E 113°51'1414.0
2014-Dec-21 07:33N 22°21' E 113°48'1414.2
2014-Dec-21 06:33N 22°35' E 113°43'4 1.0
2014-Dec-21 02:20N 22°38' E 113°41'0 0.0
2014-Dec-21 01:20N 22°38' E 113°41'3 1.2
2014-Dec-20 22:33N 22°35' E 113°43'1514.8
2014-Dec-20 21:33N 22°21' E 113°47'1715.3
2014-Dec-20 20:28N 22°05' E 113°51'7 7.2
2014-Dec-20 19:33N 21°60' E 113°55'2713.2
2014-Dec-20 17:33N 21°59' E 114°24'2215.6
2014-Dec-20 16:09N 22°04' E 114°47'12115.5
2014-Dec-20 08:22N 22°49' E 116°48'1315.9
2014-Dec-20 07:33N 22°56' E 116°60'4916.4
2014-Dec-20 04:33N 23°23' E 117°44'1716.5
2014-Dec-20 03:33N 23°34' E 117°58'1616.1
2014-Dec-20 02:33N 23°44' E 118°11'1615.7
2014-Dec-20 01:33N 23°55' E 118°24'2115.0
2014-Dec-20 00:09N 24°08' E 118°41'1415.2
2014-Dec-19 23:14N 24°17' E 118°53'1214.7
2014-Dec-19 22:27N 24°25' E 119°02'1314.2
2014-Dec-19 21:33N 24°34' E 119°13'1414.0
2014-Dec-19 20:31N 24°42' E 119°25'3113.8
2014-Dec-19 18:15N 25°05' E 119°49'1214.6
2014-Dec-19 17:27N 25°15' E 119°57'27815.2
2014-Dec-18 23:14N 29°18' E 122°27'1015.0
2014-Dec-18 22:33N 29°28' E 122°27'1414.0
2014-Dec-18 21:33N 29°42' E 122°23'1211.6
2014-Dec-18 20:33N 29°49' E 122°13'10 9.6
2014-Dec-18 19:33N 29°54' E 122°03'0 0.2
2014-Dec-18 18:24N 29°53' E 122°03'0 0.0
2014-Dec-18 17:24N 29°53' E 122°03'0 0.0
2014-Dec-18 16:12N 29°53' E 122°03'0 0.0
2014-Dec-18 15:18N 29°53' E 122°03'0 0.0
2014-Dec-18 10:12N 29°53' E 122°03'0 0.0
2014-Dec-18 07:18N 29°53' E 122°03'0 0.0
2014-Dec-18 04:33N 29°53' E 122°03'7 6.9
2014-Dec-18 03:33N 29°53' E 122°11'1110.6
2014-Dec-18 02:33N 29°45' E 122°19'1010.1
2014-Dec-18 01:33N 29°45' E 122°31'4 0.5
2014-Dec-17 16:30N 29°48' E 122°35'0 0.0
2014-Dec-17 03:24N 29°48' E 122°35'910.2
2014-Dec-17 02:32N 29°54' E 122°42'38113.6
2014-Dec-15 22:32N 35°59' E 120°32'1414.1
2014-Dec-15 21:33N 36°02' E 120°16'3 0.2
2014-Dec-15 07:05N 35°60' E 120°13'0 0.0
2014-Dec-15 06:23N 35°60' E 120°13'0 0.0
2014-Dec-15 05:06N 35°60' E 120°13'5 9.3
2014-Dec-15 04:33N 36°02' E 120°18'1212.0
2014-Dec-15 03:33N 35°59' E 120°33'1110.4
2014-Dec-15 02:31N 35°58' E 120°46'11 8.1
2014-Dec-15 01:11N 36°01' E 120°59'11314.0
2014-Dec-14 17:09N 37°13' E 122°47'914.6
2014-Dec-14 16:33N 37°21' E 122°47'1413.7
2014-Dec-14 15:33N 37°34' E 122°39'1514.6
2014-Dec-14 14:33N 37°42' E 122°24'1514.9
2014-Dec-14 13:33N 37°53' E 122°11'1515.3
2014-Dec-14 12:33N 38°01' E 121°55'1815.6
2014-Dec-14 11:25N 38°12' E 121°37'16812.1
2014-Dec-13 21:33N 38°53' E 118°09'1212.5
2014-Dec-13 20:33N 38°57' E 117°54'6 5.3
2014-Dec-13 19:29N 38°59' E 117°46'0 0.0
2014-Dec-13 18:23N 38°59' E 117°46'0 0.0
2014-Dec-13 17:23N 38°59' E 117°46'0 0.0
2014-Dec-13 16:29N 38°59' E 117°46'0 0.0
2014-Dec-13 15:05N 38°59' E 117°46'0 0.0
2014-Dec-13 14:23N 38°59' E 117°46'0 0.0
2014-Dec-13 12:11N 38°59' E 117°46'0 0.0
2014-Dec-13 11:23N 38°59' E 117°46'0 0.0
2014-Dec-13 10:23N 38°59' E 117°46'0 0.0
2014-Dec-13 08:23N 38°59' E 117°46'0 0.0
2014-Dec-13 07:29N 38°59' E 117°46'0 0.0
2014-Dec-13 06:29N 38°59' E 117°46'0 0.0
2014-Dec-13 05:29N 38°59' E 117°46'0 0.0
2014-Dec-13 04:17N 38°59' E 117°46'0 0.1
2014-Dec-13 03:29N 38°59' E 117°46'4 4.2
2014-Dec-13 02:33N 38°58' E 117°51'1313.0
2014-Dec-13 01:33N 38°55' E 118°08'4 3.5
2014-Dec-13 00:32N 38°53' E 118°11'6 5.7
2014-Dec-12 23:30N 38°51' E 118°19'13912.5
2014-Dec-12 12:25N 38°31' E 121°14'1011.9
2014-Dec-12 11:33N 38°31' E 121°27'1212.2
2014-Dec-12 10:33N 38°33' E 121°43'1413.5
2014-Dec-12 09:33N 38°45' E 121°51'1313.0
2014-Dec-12 08:33N 38°57' E 121°56'  
Track history (hours):
 
Tides and Currents Weather Stations Pressure Air Temp Water Temp Dewpoint Dewpoint Depression Visibility Wind Speed Wind Dir Waves Ship Positions

Cosco Aden

Last reported at 2014-Dec-22 05:04 UTC. Time now 2014-Dec-22 14:14 UTC.
Position N 21°59' E 114°21'.

Length 261 m; draft 12.4 m.

Type: Ship (hazmat cat A). MMSI: 477765900.

Date/timePositionNaut miles runAvg speedWind from/ knotsBaromVisibWave heightAir tempDewpointWater temp
2014-Dec-22 05:04N 21°59' E 114°21'713.1
2014-Dec-22 04:33N 22°06' E 114°19'1412.7
2014-Dec-22 03:29N 22°14' E 114°08'1010.4
2014-Dec-22 02:32N 22°21' E 113°60'8 8.7
2014-Dec-22 01:33N 22°26' E 113°53'1 0.7
2014-Dec-22 00:33N 22°27' E 113°53'0 0.1
2014-Dec-21 23:33N 22°27' E 113°53'0 0.0
2014-Dec-21 22:33N 22°27' E 113°53'0 0.1
2014-Dec-21 21:33N 22°27' E 113°53'0 0.0
2014-Dec-21 20:33N 22°27' E 113°53'0 0.1
2014-Dec-21 19:27N 22°27' E 113°53'0 0.0
2014-Dec-21 18:33N 22°27' E 113°53'0 0.0
2014-Dec-21 17:33N 22°27' E 113°53'0 0.0
2014-Dec-21 16:33N 22°27' E 113°53'0 0.0
2014-Dec-21 15:33N 22°27' E 113°53'0 0.0
2014-Dec-21 14:33N 22°27' E 113°53'6 5.6
2014-Dec-21 13:33N 22°22' E 113°55'1010.4
2014-Dec-21 12:33N 22°18' E 114°06'10 9.0
2014-Dec-21 11:26N 22°10' E 114°12'7 8.2
2014-Dec-21 10:33N 22°04' E 114°08'1211.1
2014-Dec-21 09:29N 21°60' E 113°56'9 9.6
2014-Dec-21 08:32N 22°07' E 113°51'1414.0
2014-Dec-21 07:33N 22°21' E 113°48'1414.2
2014-Dec-21 06:33N 22°35' E 113°43'4 1.0
2014-Dec-21 02:20N 22°38' E 113°41'0 0.0
2014-Dec-21 01:20N 22°38' E 113°41'3 1.2
2014-Dec-20 22:33N 22°35' E 113°43'1514.8
2014-Dec-20 21:33N 22°21' E 113°47'1715.3
2014-Dec-20 20:28N 22°05' E 113°51'7 7.2
2014-Dec-20 19:33N 21°60' E 113°55'2713.2
2014-Dec-20 17:33N 21°59' E 114°24'2215.6
2014-Dec-20 16:09N 22°04' E 114°47'12115.5
2014-Dec-20 08:22N 22°49' E 116°48'1315.9
2014-Dec-20 07:33N 22°56' E 116°60'4916.4
2014-Dec-20 04:33N 23°23' E 117°44'1716.5
2014-Dec-20 03:33N 23°34' E 117°58'1616.1
2014-Dec-20 02:33N 23°44' E 118°11'1615.7
2014-Dec-20 01:33N 23°55' E 118°24'2115.0
2014-Dec-20 00:09N 24°08' E 118°41'1415.2
2014-Dec-19 23:14N 24°17' E 118°53'1214.7
2014-Dec-19 22:27N 24°25' E 119°02'1314.2
2014-Dec-19 21:33N 24°34' E 119°13'1414.0
2014-Dec-19 20:31N 24°42' E 119°25'3113.8
2014-Dec-19 18:15N 25°05' E 119°49'1214.6
2014-Dec-19 17:27N 25°15' E 119°57'27815.2
2014-Dec-18 23:14N 29°18' E 122°27'1015.0
2014-Dec-18 22:33N 29°28' E 122°27'1414.0
2014-Dec-18 21:33N 29°42' E 122°23'1211.6
2014-Dec-18 20:33N 29°49' E 122°13'10 9.6
2014-Dec-18 19:33N 29°54' E 122°03'0 0.2
2014-Dec-18 18:24N 29°53' E 122°03'0 0.0
2014-Dec-18 17:24N 29°53' E 122°03'0 0.0
2014-Dec-18 16:12N 29°53' E 122°03'0 0.0
2014-Dec-18 15:18N 29°53' E 122°03'0 0.0
2014-Dec-18 10:12N 29°53' E 122°03'0 0.0
2014-Dec-18 07:18N 29°53' E 122°03'0 0.0
2014-Dec-18 04:33N 29°53' E 122°03'7 6.9
2014-Dec-18 03:33N 29°53' E 122°11'1110.6
2014-Dec-18 02:33N 29°45' E 122°19'1010.1
2014-Dec-18 01:33N 29°45' E 122°31'4 0.5
2014-Dec-17 16:30N 29°48' E 122°35'0 0.0
2014-Dec-17 03:24N 29°48' E 122°35'910.2
2014-Dec-17 02:32N 29°54' E 122°42'38113.6
2014-Dec-15 22:32N 35°59' E 120°32'1414.1
2014-Dec-15 21:33N 36°02' E 120°16'3 0.2
2014-Dec-15 07:05N 35°60' E 120°13'0 0.0
2014-Dec-15 06:23N 35°60' E 120°13'0 0.0
2014-Dec-15 05:06N 35°60' E 120°13'5 9.3
2014-Dec-15 04:33N 36°02' E 120°18'1212.0
2014-Dec-15 03:33N 35°59' E 120°33'1110.4
2014-Dec-15 02:31N 35°58' E 120°46'11 8.1
2014-Dec-15 01:11N 36°01' E 120°59'11314.0
2014-Dec-14 17:09N 37°13' E 122°47'914.6
2014-Dec-14 16:33N 37°21' E 122°47'1413.7
2014-Dec-14 15:33N 37°34' E 122°39'1514.6
2014-Dec-14 14:33N 37°42' E 122°24'1514.9
2014-Dec-14 13:33N 37°53' E 122°11'1515.3
2014-Dec-14 12:33N 38°01' E 121°55'1815.6
2014-Dec-14 11:25N 38°12' E 121°37'16812.1
2014-Dec-13 21:33N 38°53' E 118°09'1212.5
2014-Dec-13 20:33N 38°57' E 117°54'6 5.3
2014-Dec-13 19:29N 38°59' E 117°46'0 0.0
2014-Dec-13 18:23N 38°59' E 117°46'0 0.0
2014-Dec-13 17:23N 38°59' E 117°46'0 0.0
2014-Dec-13 16:29N 38°59' E 117°46'0 0.0
2014-Dec-13 15:05N 38°59' E 117°46'0 0.0
2014-Dec-13 14:23N 38°59' E 117°46'0 0.0
2014-Dec-13 12:11N 38°59' E 117°46'0 0.0
2014-Dec-13 11:23N 38°59' E 117°46'0 0.0
2014-Dec-13 10:23N 38°59' E 117°46'0 0.0
2014-Dec-13 08:23N 38°59' E 117°46'0 0.0
2014-Dec-13 07:29N 38°59' E 117°46'0 0.0
2014-Dec-13 06:29N 38°59' E 117°46'0 0.0
2014-Dec-13 05:29N 38°59' E 117°46'0 0.0
2014-Dec-13 04:17N 38°59' E 117°46'0 0.1
2014-Dec-13 03:29N 38°59' E 117°46'4 4.2
2014-Dec-13 02:33N 38°58' E 117°51'1313.0
2014-Dec-13 01:33N 38°55' E 118°08'4 3.5
2014-Dec-13 00:32N 38°53' E 118°11'6 5.7
2014-Dec-12 23:30N 38°51' E 118°19'13912.5
2014-Dec-12 12:25N 38°31' E 121°14'1011.9
2014-Dec-12 11:33N 38°31' E 121°27'1212.2
2014-Dec-12 10:33N 38°33' E 121°43'1413.5
2014-Dec-12 09:33N 38°45' E 121°51'1313.0
2014-Dec-12 08:33N 38°57' E 121°56'  

Dump ship's entire track history